sensor_id;sensor_type;location;lat;lon;timestamp;P1;durP1;ratioP1;P2;durP2;ratioP2
35977;SDS011;22056;0.000;0.000;2023-06-26T00:02:24;0.73;;;0.73;;
35977;SDS011;22056;0.000;0.000;2023-06-26T00:04:50;0.82;;;0.73;;
35977;SDS011;22056;0.000;0.000;2023-06-26T00:07:20;0.70;;;0.70;;
35977;SDS011;22056;0.000;0.000;2023-06-26T00:09:46;0.95;;;0.90;;
35977;SDS011;22056;0.000;0.000;2023-06-26T00:12:12;0.80;;;0.80;;
35977;SDS011;22056;0.000;0.000;2023-06-26T00:14:38;0.70;;;0.70;;
35977;SDS011;22056;0.000;0.000;2023-06-26T00:17:04;0.90;;;0.90;;
35977;SDS011;22056;0.000;0.000;2023-06-26T00:19:30;0.93;;;0.85;;
35977;SDS011;22056;0.000;0.000;2023-06-26T00:21:58;0.90;;;0.90;;
35977;SDS011;22056;0.000;0.000;2023-06-26T00:24:24;0.75;;;0.75;;
35977;SDS011;22056;0.000;0.000;2023-06-26T00:26:50;0.75;;;0.75;;
35977;SDS011;22056;0.000;0.000;2023-06-26T00:29:16;0.80;;;0.80;;
35977;SDS011;22056;0.000;0.000;2023-06-26T00:31:42;1.23;;;1.13;;
35977;SDS011;22056;0.000;0.000;2023-06-26T00:34:08;0.93;;;0.93;;
35977;SDS011;22056;0.000;0.000;2023-06-26T00:36:34;0.90;;;0.90;;
35977;SDS011;22056;0.000;0.000;2023-06-26T00:39:01;0.90;;;0.90;;
35977;SDS011;22056;0.000;0.000;2023-06-26T00:41:28;0.90;;;0.90;;
35977;SDS011;22056;0.000;0.000;2023-06-26T00:43:54;1.13;;;1.02;;
35977;SDS011;22056;0.000;0.000;2023-06-26T00:46:20;0.70;;;0.70;;
35977;SDS011;22056;0.000;0.000;2023-06-26T00:48:47;0.80;;;0.80;;
35977;SDS011;22056;0.000;0.000;2023-06-26T00:51:14;1.00;;;1.00;;
35977;SDS011;22056;0.000;0.000;2023-06-26T00:53:40;0.80;;;0.80;;
35977;SDS011;22056;0.000;0.000;2023-06-26T00:56:06;0.80;;;0.80;;
35977;SDS011;22056;0.000;0.000;2023-06-26T00:58:32;0.80;;;0.80;;
35977;SDS011;22056;0.000;0.000;2023-06-26T01:00:58;1.05;;;1.02;;
35977;SDS011;22056;0.000;0.000;2023-06-26T01:03:26;0.70;;;0.70;;
35977;SDS011;22056;0.000;0.000;2023-06-26T01:05:52;1.10;;;1.00;;
35977;SDS011;22056;0.000;0.000;2023-06-26T01:08:20;1.02;;;0.93;;
35977;SDS011;22056;0.000;0.000;2023-06-26T01:10:46;1.20;;;1.10;;
35977;SDS011;22056;0.000;0.000;2023-06-26T01:13:13;1.17;;;1.08;;
35977;SDS011;22056;0.000;0.000;2023-06-26T01:15:39;1.20;;;1.10;;
35977;SDS011;22056;0.000;0.000;2023-06-26T01:18:06;1.27;;;1.17;;
35977;SDS011;22056;0.000;0.000;2023-06-26T01:20:41;0.95;;;0.95;;
35977;SDS011;22056;0.000;0.000;2023-06-26T01:23:12;1.00;;;1.00;;
35977;SDS011;22056;0.000;0.000;2023-06-26T01:28:06;0.80;;;0.80;;
35977;SDS011;22056;0.000;0.000;2023-06-26T01:30:37;0.90;;;0.90;;
35977;SDS011;22056;0.000;0.000;2023-06-26T01:33:03;1.20;;;1.10;;
35977;SDS011;22056;0.000;0.000;2023-06-26T01:35:30;1.02;;;0.98;;
35977;SDS011;22056;0.000;0.000;2023-06-26T01:40:55;0.90;;;0.90;;
35977;SDS011;22056;0.000;0.000;2023-06-26T01:43:27;1.30;;;1.20;;
35977;SDS011;22056;0.000;0.000;2023-06-26T01:45:59;1.00;;;1.00;;
35977;SDS011;22056;0.000;0.000;2023-06-26T01:48:30;1.25;;;1.15;;
35977;SDS011;22056;0.000;0.000;2023-06-26T01:50:58;1.23;;;1.13;;
35977;SDS011;22056;0.000;0.000;2023-06-26T01:53:25;1.23;;;1.13;;
35977;SDS011;22056;0.000;0.000;2023-06-26T01:55:59;1.05;;;0.95;;
35977;SDS011;22056;0.000;0.000;2023-06-26T01:58:26;1.40;;;1.27;;
35977;SDS011;22056;0.000;0.000;2023-06-26T02:00:53;1.10;;;1.00;;
35977;SDS011;22056;0.000;0.000;2023-06-26T02:03:19;1.10;;;1.00;;
35977;SDS011;22056;0.000;0.000;2023-06-26T02:05:45;1.30;;;1.20;;
35977;SDS011;22056;0.000;0.000;2023-06-26T02:08:13;1.52;;;1.10;;
35977;SDS011;22056;0.000;0.000;2023-06-26T02:10:39;0.80;;;0.80;;
35977;SDS011;22056;0.000;0.000;2023-06-26T02:13:05;0.98;;;0.98;;
35977;SDS011;22056;0.000;0.000;2023-06-26T02:15:32;1.30;;;1.20;;
35977;SDS011;22056;0.000;0.000;2023-06-26T02:17:58;1.02;;;0.93;;
35977;SDS011;22056;0.000;0.000;2023-06-26T02:20:24;1.00;;;1.00;;
35977;SDS011;22056;0.000;0.000;2023-06-26T02:22:50;1.13;;;1.08;;
35977;SDS011;22056;0.000;0.000;2023-06-26T02:25:17;0.80;;;0.80;;
35977;SDS011;22056;0.000;0.000;2023-06-26T02:27:43;0.80;;;0.80;;
35977;SDS011;22056;0.000;0.000;2023-06-26T02:30:09;1.20;;;1.10;;
35977;SDS011;22056;0.000;0.000;2023-06-26T02:32:36;0.75;;;0.75;;
35977;SDS011;22056;0.000;0.000;2023-06-26T02:35:02;1.40;;;1.30;;
35977;SDS011;22056;0.000;0.000;2023-06-26T02:37:28;1.10;;;1.00;;
35977;SDS011;22056;0.000;0.000;2023-06-26T02:39:54;0.90;;;0.90;;
35977;SDS011;22056;0.000;0.000;2023-06-26T02:42:20;0.85;;;0.85;;
35977;SDS011;22056;0.000;0.000;2023-06-26T02:44:46;0.90;;;0.90;;
35977;SDS011;22056;0.000;0.000;2023-06-26T02:47:12;0.82;;;0.82;;
35977;SDS011;22056;0.000;0.000;2023-06-26T02:49:39;0.88;;;0.88;;
35977;SDS011;22056;0.000;0.000;2023-06-26T02:52:05;0.82;;;0.82;;
35977;SDS011;22056;0.000;0.000;2023-06-26T02:54:31;0.90;;;0.90;;
35977;SDS011;22056;0.000;0.000;2023-06-26T02:56:57;1.10;;;1.02;;
35977;SDS011;22056;0.000;0.000;2023-06-26T02:59:24;0.88;;;0.88;;
35977;SDS011;22056;0.000;0.000;2023-06-26T03:01:51;0.60;;;0.60;;
35977;SDS011;22056;0.000;0.000;2023-06-26T03:04:17;0.93;;;0.93;;
35977;SDS011;22056;0.000;0.000;2023-06-26T03:06:43;0.77;;;0.77;;
35977;SDS011;22056;0.000;0.000;2023-06-26T03:09:09;1.05;;;1.00;;
35977;SDS011;22056;0.000;0.000;2023-06-26T03:11:35;1.17;;;1.08;;
35977;SDS011;22056;0.000;0.000;2023-06-26T03:14:01;1.10;;;1.00;;
35977;SDS011;22056;0.000;0.000;2023-06-26T03:16:28;1.30;;;1.20;;
35977;SDS011;22056;0.000;0.000;2023-06-26T03:18:54;1.00;;;1.00;;
35977;SDS011;22056;0.000;0.000;2023-06-26T03:21:20;0.88;;;0.88;;
35977;SDS011;22056;0.000;0.000;2023-06-26T03:23:46;1.08;;;0.98;;
35977;SDS011;22056;0.000;0.000;2023-06-26T03:26:12;0.82;;;0.82;;
35977;SDS011;22056;0.000;0.000;2023-06-26T03:28:39;0.90;;;0.90;;
35977;SDS011;22056;0.000;0.000;2023-06-26T03:31:07;1.00;;;1.00;;
35977;SDS011;22056;0.000;0.000;2023-06-26T03:33:33;1.30;;;1.20;;
35977;SDS011;22056;0.000;0.000;2023-06-26T03:35:59;0.90;;;0.90;;
35977;SDS011;22056;0.000;0.000;2023-06-26T03:38:25;0.70;;;0.70;;
35977;SDS011;22056;0.000;0.000;2023-06-26T03:40:52;1.00;;;1.00;;
35977;SDS011;22056;0.000;0.000;2023-06-26T03:43:18;1.20;;;1.10;;
35977;SDS011;22056;0.000;0.000;2023-06-26T03:45:44;1.08;;;1.00;;
35977;SDS011;22056;0.000;0.000;2023-06-26T03:48:11;0.80;;;0.80;;
35977;SDS011;22056;0.000;0.000;2023-06-26T03:50:37;0.73;;;0.73;;
35977;SDS011;22056;0.000;0.000;2023-06-26T03:53:03;1.13;;;1.02;;
35977;SDS011;22056;0.000;0.000;2023-06-26T03:55:29;0.75;;;0.75;;
35977;SDS011;22056;0.000;0.000;2023-06-26T03:57:55;0.70;;;0.70;;
35977;SDS011;22056;0.000;0.000;2023-06-26T04:03:15;1.23;;;1.13;;
35977;SDS011;22056;0.000;0.000;2023-06-26T04:05:41;1.25;;;1.10;;
35977;SDS011;22056;0.000;0.000;2023-06-26T04:08:08;0.70;;;0.70;;
35977;SDS011;22056;0.000;0.000;2023-06-26T04:10:34;1.00;;;0.95;;
35977;SDS011;22056;0.000;0.000;2023-06-26T04:13:03;1.05;;;1.00;;
35977;SDS011;22056;0.000;0.000;2023-06-26T04:15:30;1.10;;;0.82;;
35977;SDS011;22056;0.000;0.000;2023-06-26T04:17:56;0.93;;;0.90;;
35977;SDS011;22056;0.000;0.000;2023-06-26T04:20:22;2.17;;;1.10;;
35977;SDS011;22056;0.000;0.000;2023-06-26T04:22:48;1.30;;;1.10;;
35977;SDS011;22056;0.000;0.000;2023-06-26T04:25:14;1.20;;;1.10;;
35977;SDS011;22056;0.000;0.000;2023-06-26T04:27:40;1.52;;;0.90;;
35977;SDS011;22056;0.000;0.000;2023-06-26T04:30:07;0.80;;;0.80;;
35977;SDS011;22056;0.000;0.000;2023-06-26T04:32:33;0.90;;;0.90;;
35977;SDS011;22056;0.000;0.000;2023-06-26T04:34:59;1.23;;;1.13;;
35977;SDS011;22056;0.000;0.000;2023-06-26T04:37:25;1.17;;;1.00;;
35977;SDS011;22056;0.000;0.000;2023-06-26T04:39:52;1.63;;;0.90;;
35977;SDS011;22056;0.000;0.000;2023-06-26T04:42:18;0.70;;;0.70;;
35977;SDS011;22056;0.000;0.000;2023-06-26T04:44:46;1.98;;;0.98;;
35977;SDS011;22056;0.000;0.000;2023-06-26T04:47:13;3.40;;;1.00;;
35977;SDS011;22056;0.000;0.000;2023-06-26T04:49:40;1.35;;;1.08;;
35977;SDS011;22056;0.000;0.000;2023-06-26T04:52:11;1.10;;;1.00;;
35977;SDS011;22056;0.000;0.000;2023-06-26T04:54:38;0.85;;;0.85;;
35977;SDS011;22056;0.000;0.000;2023-06-26T04:57:05;3.97;;;1.08;;
35977;SDS011;22056;0.000;0.000;2023-06-26T04:59:31;2.20;;;1.20;;
35977;SDS011;22056;0.000;0.000;2023-06-26T05:01:57;1.17;;;0.90;;
35977;SDS011;22056;0.000;0.000;2023-06-26T05:04:23;2.65;;;1.10;;
35977;SDS011;22056;0.000;0.000;2023-06-26T05:06:49;1.52;;;1.02;;
35977;SDS011;22056;0.000;0.000;2023-06-26T05:09:15;1.33;;;1.15;;
35977;SDS011;22056;0.000;0.000;2023-06-26T05:11:41;1.52;;;1.10;;
35977;SDS011;22056;0.000;0.000;2023-06-26T05:14:08;1.42;;;1.08;;
35977;SDS011;22056;0.000;0.000;2023-06-26T05:16:34;1.83;;;1.30;;
35977;SDS011;22056;0.000;0.000;2023-06-26T05:19:00;1.85;;;1.20;;
35977;SDS011;22056;0.000;0.000;2023-06-26T05:21:27;2.75;;;1.17;;
35977;SDS011;22056;0.000;0.000;2023-06-26T05:23:54;2.88;;;1.20;;
35977;SDS011;22056;0.000;0.000;2023-06-26T05:26:22;2.80;;;1.10;;
35977;SDS011;22056;0.000;0.000;2023-06-26T05:28:48;1.45;;;1.17;;
35977;SDS011;22056;0.000;0.000;2023-06-26T05:31:15;1.70;;;1.10;;
35977;SDS011;22056;0.000;0.000;2023-06-26T05:33:43;2.88;;;1.45;;
35977;SDS011;22056;0.000;0.000;2023-06-26T05:36:10;3.40;;;1.40;;
35977;SDS011;22056;0.000;0.000;2023-06-26T05:38:38;3.28;;;1.23;;
35977;SDS011;22056;0.000;0.000;2023-06-26T05:41:04;3.28;;;1.33;;
35977;SDS011;22056;0.000;0.000;2023-06-26T05:43:30;1.67;;;1.38;;
35977;SDS011;22056;0.000;0.000;2023-06-26T05:45:56;3.90;;;1.38;;
35977;SDS011;22056;0.000;0.000;2023-06-26T05:48:23;3.33;;;1.30;;
35977;SDS011;22056;0.000;0.000;2023-06-26T05:50:49;5.88;;;1.45;;
35977;SDS011;22056;0.000;0.000;2023-06-26T05:53:15;3.90;;;1.67;;
35977;SDS011;22056;0.000;0.000;2023-06-26T05:55:42;4.60;;;1.58;;
35977;SDS011;22056;0.000;0.000;2023-06-26T05:58:09;6.10;;;1.23;;
35977;SDS011;22056;0.000;0.000;2023-06-26T06:00:37;3.70;;;1.55;;
35977;SDS011;22056;0.000;0.000;2023-06-26T06:03:03;4.47;;;1.17;;
35977;SDS011;22056;0.000;0.000;2023-06-26T06:05:29;5.03;;;1.60;;
35977;SDS011;22056;0.000;0.000;2023-06-26T06:07:55;5.13;;;1.60;;
35977;SDS011;22056;0.000;0.000;2023-06-26T06:10:21;4.50;;;1.42;;
35977;SDS011;22056;0.000;0.000;2023-06-26T06:12:47;6.05;;;1.50;;
35977;SDS011;22056;0.000;0.000;2023-06-26T06:15:13;2.88;;;1.60;;
35977;SDS011;22056;0.000;0.000;2023-06-26T06:17:40;3.65;;;1.40;;
35977;SDS011;22056;0.000;0.000;2023-06-26T06:20:06;3.90;;;1.48;;
35977;SDS011;22056;0.000;0.000;2023-06-26T06:22:32;5.38;;;1.40;;
35977;SDS011;22056;0.000;0.000;2023-06-26T06:24:58;3.70;;;1.65;;
35977;SDS011;22056;0.000;0.000;2023-06-26T06:27:25;8.48;;;1.73;;
35977;SDS011;22056;0.000;0.000;2023-06-26T06:29:51;2.80;;;1.40;;
35977;SDS011;22056;0.000;0.000;2023-06-26T06:32:17;2.88;;;1.30;;
35977;SDS011;22056;0.000;0.000;2023-06-26T06:34:44;3.10;;;1.45;;
35977;SDS011;22056;0.000;0.000;2023-06-26T06:37:10;6.72;;;2.20;;
35977;SDS011;22056;0.000;0.000;2023-06-26T06:39:36;7.13;;;1.90;;
35977;SDS011;22056;0.000;0.000;2023-06-26T06:42:02;4.47;;;1.63;;
35977;SDS011;22056;0.000;0.000;2023-06-26T06:44:28;3.17;;;1.50;;
35977;SDS011;22056;0.000;0.000;2023-06-26T06:46:55;3.53;;;1.55;;
35977;SDS011;22056;0.000;0.000;2023-06-26T06:49:21;7.78;;;1.77;;
35977;SDS011;22056;0.000;0.000;2023-06-26T06:51:48;7.10;;;1.52;;
35977;SDS011;22056;0.000;0.000;2023-06-26T06:54:15;5.50;;;1.60;;
35977;SDS011;22056;0.000;0.000;2023-06-26T06:56:41;7.45;;;1.73;;
35977;SDS011;22056;0.000;0.000;2023-06-26T06:59:07;8.25;;;1.80;;
35977;SDS011;22056;0.000;0.000;2023-06-26T07:01:34;5.43;;;1.63;;
35977;SDS011;22056;0.000;0.000;2023-06-26T07:04:00;5.97;;;1.35;;
35977;SDS011;22056;0.000;0.000;2023-06-26T07:06:26;3.55;;;1.60;;
35977;SDS011;22056;0.000;0.000;2023-06-26T07:08:52;3.42;;;1.25;;
35977;SDS011;22056;0.000;0.000;2023-06-26T07:11:18;5.15;;;1.48;;
35977;SDS011;22056;0.000;0.000;2023-06-26T07:13:44;9.40;;;1.50;;
35977;SDS011;22056;0.000;0.000;2023-06-26T07:16:10;4.88;;;1.92;;
35977;SDS011;22056;0.000;0.000;2023-06-26T07:18:37;5.65;;;1.35;;
35977;SDS011;22056;0.000;0.000;2023-06-26T07:21:03;4.95;;;1.70;;
35977;SDS011;22056;0.000;0.000;2023-06-26T07:23:30;4.63;;;1.90;;
35977;SDS011;22056;0.000;0.000;2023-06-26T07:25:56;5.82;;;1.42;;
35977;SDS011;22056;0.000;0.000;2023-06-26T07:28:22;4.78;;;1.88;;
35977;SDS011;22056;0.000;0.000;2023-06-26T07:30:48;6.47;;;1.63;;
35977;SDS011;22056;0.000;0.000;2023-06-26T07:33:15;4.28;;;1.60;;
35977;SDS011;22056;0.000;0.000;2023-06-26T07:35:41;5.90;;;1.70;;
35977;SDS011;22056;0.000;0.000;2023-06-26T07:38:07;6.55;;;1.40;;
35977;SDS011;22056;0.000;0.000;2023-06-26T07:40:33;4.13;;;1.40;;
35977;SDS011;22056;0.000;0.000;2023-06-26T07:42:59;5.78;;;2.13;;
35977;SDS011;22056;0.000;0.000;2023-06-26T07:45:25;7.93;;;1.95;;
35977;SDS011;22056;0.000;0.000;2023-06-26T07:47:51;4.53;;;1.55;;
35977;SDS011;22056;0.000;0.000;2023-06-26T07:50:17;10.15;;;1.55;;
35977;SDS011;22056;0.000;0.000;2023-06-26T07:52:47;7.20;;;1.73;;
35977;SDS011;22056;0.000;0.000;2023-06-26T07:55:13;3.35;;;1.65;;
35977;SDS011;22056;0.000;0.000;2023-06-26T07:57:39;3.00;;;1.25;;
35977;SDS011;22056;0.000;0.000;2023-06-26T08:00:06;5.90;;;1.35;;
35977;SDS011;22056;0.000;0.000;2023-06-26T08:02:32;5.55;;;1.80;;
35977;SDS011;22056;0.000;0.000;2023-06-26T08:04:58;6.97;;;1.85;;
35977;SDS011;22056;0.000;0.000;2023-06-26T08:07:24;5.40;;;1.52;;
35977;SDS011;22056;0.000;0.000;2023-06-26T08:09:50;4.68;;;1.90;;
35977;SDS011;22056;0.000;0.000;2023-06-26T08:12:17;6.63;;;1.48;;
35977;SDS011;22056;0.000;0.000;2023-06-26T08:14:43;5.18;;;1.70;;
35977;SDS011;22056;0.000;0.000;2023-06-26T08:17:09;6.13;;;1.80;;
35977;SDS011;22056;0.000;0.000;2023-06-26T08:19:35;8.48;;;1.83;;
35977;SDS011;22056;0.000;0.000;2023-06-26T08:22:01;6.38;;;1.60;;
35977;SDS011;22056;0.000;0.000;2023-06-26T08:24:28;7.28;;;1.70;;
35977;SDS011;22056;0.000;0.000;2023-06-26T08:26:54;8.23;;;1.42;;
35977;SDS011;22056;0.000;0.000;2023-06-26T08:29:20;6.80;;;1.63;;
35977;SDS011;22056;0.000;0.000;2023-06-26T08:31:46;7.53;;;1.73;;
35977;SDS011;22056;0.000;0.000;2023-06-26T08:34:12;7.78;;;1.73;;
35977;SDS011;22056;0.000;0.000;2023-06-26T08:36:38;5.93;;;1.58;;
35977;SDS011;22056;0.000;0.000;2023-06-26T08:39:05;5.10;;;1.50;;
35977;SDS011;22056;0.000;0.000;2023-06-26T08:41:31;7.55;;;1.70;;
35977;SDS011;22056;0.000;0.000;2023-06-26T08:43:57;4.95;;;1.52;;
35977;SDS011;22056;0.000;0.000;2023-06-26T08:46:23;7.63;;;1.80;;
35977;SDS011;22056;0.000;0.000;2023-06-26T08:48:57;5.38;;;1.55;;
35977;SDS011;22056;0.000;0.000;2023-06-26T08:51:27;5.43;;;1.38;;
35977;SDS011;22056;0.000;0.000;2023-06-26T08:56:23;3.92;;;1.48;;
35977;SDS011;22056;0.000;0.000;2023-06-26T08:58:50;4.30;;;1.38;;
35977;SDS011;22056;0.000;0.000;2023-06-26T09:01:16;7.03;;;1.85;;
35977;SDS011;22056;0.000;0.000;2023-06-26T09:03:44;5.10;;;1.45;;
35977;SDS011;22056;0.000;0.000;2023-06-26T09:06:10;5.75;;;1.67;;
35977;SDS011;22056;0.000;0.000;2023-06-26T09:08:36;4.60;;;1.50;;
35977;SDS011;22056;0.000;0.000;2023-06-26T09:11:03;5.07;;;1.60;;
35977;SDS011;22056;0.000;0.000;2023-06-26T09:13:29;4.60;;;1.10;;
35977;SDS011;22056;0.000;0.000;2023-06-26T09:15:56;3.47;;;1.58;;
35977;SDS011;22056;0.000;0.000;2023-06-26T09:18:22;4.47;;;1.58;;
35977;SDS011;22056;0.000;0.000;2023-06-26T09:20:48;3.03;;;1.27;;
35977;SDS011;22056;0.000;0.000;2023-06-26T09:23:14;3.78;;;1.15;;
35977;SDS011;22056;0.000;0.000;2023-06-26T09:25:41;2.60;;;1.52;;
35977;SDS011;22056;0.000;0.000;2023-06-26T09:28:08;3.42;;;1.30;;
35977;SDS011;22056;0.000;0.000;2023-06-26T09:30:34;5.32;;;1.30;;
35977;SDS011;22056;0.000;0.000;2023-06-26T09:33:17;2.15;;;1.60;;
35977;SDS011;22056;0.000;0.000;2023-06-26T09:35:44;2.53;;;1.40;;
35977;SDS011;22056;0.000;0.000;2023-06-26T09:38:10;2.60;;;1.48;;
35977;SDS011;22056;0.000;0.000;2023-06-26T09:40:37;3.22;;;1.15;;
35977;SDS011;22056;0.000;0.000;2023-06-26T09:43:07;6.10;;;1.50;;
35977;SDS011;22056;0.000;0.000;2023-06-26T09:45:33;3.30;;;1.30;;
35977;SDS011;22056;0.000;0.000;2023-06-26T09:48:01;5.07;;;1.50;;
35977;SDS011;22056;0.000;0.000;2023-06-26T09:50:28;3.65;;;1.30;;
35977;SDS011;22056;0.000;0.000;2023-06-26T09:52:55;3.15;;;1.40;;
35977;SDS011;22056;0.000;0.000;2023-06-26T09:55:21;4.10;;;1.70;;
35977;SDS011;22056;0.000;0.000;2023-06-26T09:57:49;3.40;;;1.00;;
35977;SDS011;22056;0.000;0.000;2023-06-26T10:00:16;5.30;;;1.58;;
35977;SDS011;22056;0.000;0.000;2023-06-26T10:02:42;2.20;;;1.38;;
35977;SDS011;22056;0.000;0.000;2023-06-26T10:05:08;4.28;;;1.17;;
35977;SDS011;22056;0.000;0.000;2023-06-26T10:07:35;5.97;;;1.40;;
35977;SDS011;22056;0.000;0.000;2023-06-26T10:10:02;4.03;;;1.25;;
35977;SDS011;22056;0.000;0.000;2023-06-26T10:12:30;5.10;;;1.42;;
35977;SDS011;22056;0.000;0.000;2023-06-26T10:14:56;6.15;;;1.35;;
35977;SDS011;22056;0.000;0.000;2023-06-26T10:17:24;1.83;;;1.02;;
35977;SDS011;22056;0.000;0.000;2023-06-26T10:19:50;3.85;;;1.23;;
35977;SDS011;22056;0.000;0.000;2023-06-26T10:22:20;2.63;;;1.30;;
35977;SDS011;22056;0.000;0.000;2023-06-26T10:24:47;5.10;;;1.40;;
35977;SDS011;22056;0.000;0.000;2023-06-26T10:29:40;3.45;;;1.30;;
35977;SDS011;22056;0.000;0.000;2023-06-26T10:32:06;3.60;;;1.38;;
35977;SDS011;22056;0.000;0.000;2023-06-26T10:34:32;4.50;;;1.50;;
35977;SDS011;22056;0.000;0.000;2023-06-26T10:36:59;3.97;;;1.30;;
35977;SDS011;22056;0.000;0.000;2023-06-26T10:39:26;2.60;;;1.35;;
35977;SDS011;22056;0.000;0.000;2023-06-26T10:41:54;4.03;;;1.38;;
35977;SDS011;22056;0.000;0.000;2023-06-26T10:44:21;2.67;;;1.42;;
35977;SDS011;22056;0.000;0.000;2023-06-26T10:46:54;3.60;;;1.40;;
35977;SDS011;22056;0.000;0.000;2023-06-26T10:49:25;1.85;;;1.30;;
35977;SDS011;22056;0.000;0.000;2023-06-26T10:51:51;4.65;;;1.27;;
35977;SDS011;22056;0.000;0.000;2023-06-26T10:54:19;3.67;;;1.27;;
35977;SDS011;22056;0.000;0.000;2023-06-26T10:56:46;4.32;;;1.25;;
35977;SDS011;22056;0.000;0.000;2023-06-26T10:59:14;4.80;;;1.60;;
35977;SDS011;22056;0.000;0.000;2023-06-26T11:01:41;4.45;;;1.30;;
35977;SDS011;22056;0.000;0.000;2023-06-26T11:04:07;4.05;;;1.50;;
35977;SDS011;22056;0.000;0.000;2023-06-26T11:06:36;2.95;;;1.25;;
35977;SDS011;22056;0.000;0.000;2023-06-26T11:14:23;3.63;;;1.20;;
35977;SDS011;22056;0.000;0.000;2023-06-26T11:16:50;3.78;;;1.50;;
35977;SDS011;22056;0.000;0.000;2023-06-26T11:19:16;3.50;;;1.25;;
35977;SDS011;22056;0.000;0.000;2023-06-26T11:21:43;6.75;;;1.45;;
35977;SDS011;22056;0.000;0.000;2023-06-26T11:24:10;5.72;;;1.45;;
35977;SDS011;22056;0.000;0.000;2023-06-26T11:26:41;4.40;;;1.10;;
35977;SDS011;22056;0.000;0.000;2023-06-26T11:29:07;5.47;;;1.60;;
35977;SDS011;22056;0.000;0.000;2023-06-26T11:31:34;2.30;;;1.30;;
35977;SDS011;22056;0.000;0.000;2023-06-26T11:34:02;5.85;;;1.40;;
35977;SDS011;22056;0.000;0.000;2023-06-26T11:36:29;2.67;;;1.30;;
35977;SDS011;22056;0.000;0.000;2023-06-26T11:38:56;4.72;;;1.33;;
35977;SDS011;22056;0.000;0.000;2023-06-26T11:41:23;4.85;;;1.33;;
35977;SDS011;22056;0.000;0.000;2023-06-26T11:43:50;6.50;;;1.10;;
35977;SDS011;22056;0.000;0.000;2023-06-26T11:46:17;2.45;;;1.10;;
35977;SDS011;22056;0.000;0.000;2023-06-26T11:48:43;2.15;;;1.02;;
35977;SDS011;22056;0.000;0.000;2023-06-26T11:51:12;6.07;;;1.25;;
35977;SDS011;22056;0.000;0.000;2023-06-26T11:53:40;4.55;;;1.20;;
35977;SDS011;22056;0.000;0.000;2023-06-26T11:56:16;5.78;;;1.23;;
35977;SDS011;22056;0.000;0.000;2023-06-26T12:01:26;5.70;;;1.30;;
35977;SDS011;22056;0.000;0.000;2023-06-26T12:03:54;4.30;;;1.00;;
35977;SDS011;22056;0.000;0.000;2023-06-26T12:06:20;5.13;;;1.50;;
35977;SDS011;22056;0.000;0.000;2023-06-26T12:08:46;3.42;;;1.17;;
35977;SDS011;22056;0.000;0.000;2023-06-26T12:11:12;4.28;;;0.90;;
35977;SDS011;22056;0.000;0.000;2023-06-26T12:13:39;3.40;;;1.52;;
35977;SDS011;22056;0.000;0.000;2023-06-26T12:16:05;3.45;;;1.63;;
35977;SDS011;22056;0.000;0.000;2023-06-26T12:18:35;2.63;;;1.05;;
35977;SDS011;22056;0.000;0.000;2023-06-26T12:21:01;2.63;;;1.10;;
35977;SDS011;22056;0.000;0.000;2023-06-26T12:23:38;3.53;;;1.02;;
35977;SDS011;22056;0.000;0.000;2023-06-26T12:26:20;4.80;;;1.02;;
35977;SDS011;22056;0.000;0.000;2023-06-26T12:28:46;2.28;;;1.00;;
35977;SDS011;22056;0.000;0.000;2023-06-26T12:31:16;1.65;;;1.10;;
35977;SDS011;22056;0.000;0.000;2023-06-26T12:33:43;3.38;;;1.17;;
35977;SDS011;22056;0.000;0.000;2023-06-26T12:36:15;2.38;;;1.13;;
35977;SDS011;22056;0.000;0.000;2023-06-26T12:38:41;2.13;;;1.17;;
35977;SDS011;22056;0.000;0.000;2023-06-26T12:41:13;1.92;;;0.90;;
35977;SDS011;22056;0.000;0.000;2023-06-26T12:43:40;3.10;;;0.98;;
35977;SDS011;22056;0.000;0.000;2023-06-26T12:46:06;1.98;;;1.05;;
35977;SDS011;22056;0.000;0.000;2023-06-26T12:48:42;3.42;;;1.02;;
35977;SDS011;22056;0.000;0.000;2023-06-26T12:51:10;2.45;;;0.98;;
35977;SDS011;22056;0.000;0.000;2023-06-26T12:53:37;7.95;;;1.10;;
35977;SDS011;22056;0.000;0.000;2023-06-26T12:56:07;2.45;;;0.98;;
35977;SDS011;22056;0.000;0.000;2023-06-26T12:58:37;1.27;;;0.93;;
35977;SDS011;22056;0.000;0.000;2023-06-26T13:01:04;4.43;;;1.27;;
35977;SDS011;22056;0.000;0.000;2023-06-26T13:03:30;3.50;;;1.13;;
35977;SDS011;22056;0.000;0.000;2023-06-26T13:05:56;3.47;;;1.30;;
35977;SDS011;22056;0.000;0.000;2023-06-26T13:08:23;5.05;;;1.10;;
35977;SDS011;22056;0.000;0.000;2023-06-26T13:10:49;4.30;;;1.27;;
35977;SDS011;22056;0.000;0.000;2023-06-26T13:13:16;2.28;;;1.00;;
35977;SDS011;22056;0.000;0.000;2023-06-26T13:15:42;3.70;;;1.20;;
35977;SDS011;22056;0.000;0.000;2023-06-26T13:18:08;4.60;;;1.10;;
35977;SDS011;22056;0.000;0.000;2023-06-26T13:20:34;5.28;;;1.23;;
35977;SDS011;22056;0.000;0.000;2023-06-26T13:23:00;11.90;;;1.50;;
35977;SDS011;22056;0.000;0.000;2023-06-26T13:25:27;4.28;;;1.45;;
35977;SDS011;22056;0.000;0.000;2023-06-26T13:27:53;3.75;;;1.38;;
35977;SDS011;22056;0.000;0.000;2023-06-26T13:30:19;2.38;;;0.95;;
35977;SDS011;22056;0.000;0.000;2023-06-26T13:32:45;3.08;;;1.20;;
35977;SDS011;22056;0.000;0.000;2023-06-26T13:35:11;4.97;;;1.08;;
35977;SDS011;22056;0.000;0.000;2023-06-26T13:37:38;1.15;;;1.00;;
35977;SDS011;22056;0.000;0.000;2023-06-26T13:40:05;3.53;;;1.30;;
35977;SDS011;22056;0.000;0.000;2023-06-26T13:42:32;2.70;;;1.15;;
35977;SDS011;22056;0.000;0.000;2023-06-26T13:44:58;3.20;;;1.33;;
35977;SDS011;22056;0.000;0.000;2023-06-26T13:47:24;1.42;;;1.00;;
35977;SDS011;22056;0.000;0.000;2023-06-26T13:49:50;2.30;;;1.00;;
35977;SDS011;22056;0.000;0.000;2023-06-26T13:52:16;3.30;;;1.35;;
35977;SDS011;22056;0.000;0.000;2023-06-26T13:54:43;2.72;;;0.77;;
35977;SDS011;22056;0.000;0.000;2023-06-26T13:57:09;2.13;;;1.08;;
35977;SDS011;22056;0.000;0.000;2023-06-26T13:59:36;4.32;;;1.20;;
35977;SDS011;22056;0.000;0.000;2023-06-26T14:02:03;1.95;;;1.13;;
35977;SDS011;22056;0.000;0.000;2023-06-26T14:04:30;2.08;;;1.23;;
35977;SDS011;22056;0.000;0.000;2023-06-26T14:06:56;2.30;;;1.13;;
35977;SDS011;22056;0.000;0.000;2023-06-26T14:09:22;3.13;;;1.27;;
35977;SDS011;22056;0.000;0.000;2023-06-26T14:11:50;1.20;;;0.95;;
35977;SDS011;22056;0.000;0.000;2023-06-26T14:14:16;3.92;;;1.10;;
35977;SDS011;22056;0.000;0.000;2023-06-26T14:16:42;4.20;;;0.98;;
35977;SDS011;22056;0.000;0.000;2023-06-26T14:19:09;1.88;;;1.02;;
35977;SDS011;22056;0.000;0.000;2023-06-26T14:21:40;1.55;;;0.90;;
35977;SDS011;22056;0.000;0.000;2023-06-26T14:24:07;2.40;;;0.90;;
35977;SDS011;22056;0.000;0.000;2023-06-26T14:26:33;3.97;;;1.00;;
35977;SDS011;22056;0.000;0.000;2023-06-26T14:29:02;3.40;;;0.93;;
35977;SDS011;22056;0.000;0.000;2023-06-26T14:31:28;1.48;;;0.95;;
35977;SDS011;22056;0.000;0.000;2023-06-26T14:33:55;1.67;;;1.10;;
35977;SDS011;22056;0.000;0.000;2023-06-26T14:36:21;4.85;;;1.13;;
35977;SDS011;22056;0.000;0.000;2023-06-26T14:38:47;1.08;;;0.95;;
35977;SDS011;22056;0.000;0.000;2023-06-26T14:41:13;2.58;;;1.15;;
35977;SDS011;22056;0.000;0.000;2023-06-26T14:43:39;1.83;;;0.80;;
35977;SDS011;22056;0.000;0.000;2023-06-26T14:46:05;3.35;;;1.00;;
35977;SDS011;22056;0.000;0.000;2023-06-26T14:48:31;3.13;;;1.00;;
35977;SDS011;22056;0.000;0.000;2023-06-26T14:50:57;1.52;;;0.98;;
35977;SDS011;22056;0.000;0.000;2023-06-26T14:53:25;2.53;;;1.20;;
35977;SDS011;22056;0.000;0.000;2023-06-26T14:55:51;6.22;;;1.00;;
35977;SDS011;22056;0.000;0.000;2023-06-26T14:58:17;2.10;;;1.13;;
35977;SDS011;22056;0.000;0.000;2023-06-26T15:00:43;1.52;;;1.00;;
35977;SDS011;22056;0.000;0.000;2023-06-26T15:03:09;2.17;;;1.05;;
35977;SDS011;22056;0.000;0.000;2023-06-26T15:05:35;1.55;;;0.93;;
35977;SDS011;22056;0.000;0.000;2023-06-26T15:08:02;2.58;;;1.20;;
35977;SDS011;22056;0.000;0.000;2023-06-26T15:10:28;1.52;;;0.80;;
35977;SDS011;22056;0.000;0.000;2023-06-26T15:12:54;1.98;;;0.80;;
35977;SDS011;22056;0.000;0.000;2023-06-26T15:15:20;4.90;;;1.20;;
35977;SDS011;22056;0.000;0.000;2023-06-26T15:17:47;1.35;;;0.88;;
35977;SDS011;22056;0.000;0.000;2023-06-26T15:20:13;3.65;;;0.85;;